Time;durP1;ratioP1;P1;durP2;ratioP2;P2;SDS_P1;SDS_P2;PMS_P1;PMS_P2;Temp;Humidity;BMP_temperature;BMP_pressure;BME280_temperature;BME280_humidity;BME280_pressure;Samples;Min_cycle;Max_cycle;Signal;HPM_P1;HPM_P2
2022/08/01 00:02:12;;;;;;;7.45;2.20;;;;;;;19.28;100.00;96617.94;4964017;28;20072;-73
2022/08/01 00:04:37;;;;;;;5.65;2.70;;;;;;;19.35;100.00;96612.94;4969622;28;20030;-73
2022/08/01 00:07:03;;;;;;;4.97;2.60;;;;;;;19.45;100.00;96612.72;4963967;28;20066;-73
2022/08/01 00:09:29;;;;;;;6.13;2.55;;;;;;;19.49;100.00;96611.03;4968062;28;20065;-73
2022/08/01 00:11:54;;;;;;;4.78;2.60;;;;;;;19.51;100.00;96603.38;4967981;28;20638;-73
2022/08/01 00:14:20;;;;;;;8.70;2.50;;;;;;;19.56;100.00;96605.22;4955240;28;20034;-73
2022/08/01 00:16:45;;;;;;;4.85;2.45;;;;;;;19.51;100.00;96597.97;4966458;28;20380;-73
2022/08/01 00:19:11;;;;;;;7.72;2.70;;;;;;;19.57;100.00;96604.94;4966724;28;20241;-72
2022/08/01 00:21:36;;;;;;;6.40;2.38;;;;;;;19.59;100.00;96600.00;4967190;28;20235;-73
2022/08/01 00:24:02;;;;;;;4.38;2.63;;;;;;;19.58;100.00;96603.03;4966718;28;20389;-72
2022/08/01 00:26:27;;;;;;;4.30;2.40;;;;;;;19.58;100.00;96597.59;4968676;28;20098;-73
2022/08/01 00:28:53;;;;;;;11.05;2.75;;;;;;;19.67;100.00;96602.00;4963978;28;20034;-73
2022/08/01 00:31:18;;;;;;;6.40;3.13;;;;;;;19.67;100.00;96601.19;4965573;28;20469;-73
2022/08/01 00:33:44;;;;;;;10.13;3.40;;;;;;;19.61;100.00;96602.41;4967100;28;20042;-72
2022/08/01 00:36:09;;;;;;;6.38;3.15;;;;;;;19.64;100.00;96599.91;4966835;28;20624;-72
2022/08/01 00:38:34;;;;;;;8.18;3.20;;;;;;;19.65;100.00;96596.06;4967176;28;20037;-73
2022/08/01 00:41:00;;;;;;;4.90;2.75;;;;;;;19.61;100.00;96602.41;4969902;28;20034;-73
2022/08/01 00:43:25;;;;;;;6.15;3.28;;;;;;;19.57;100.00;96599.50;4967278;28;20125;-73
2022/08/01 00:45:51;;;;;;;5.88;2.80;;;;;;;19.54;100.00;96602.81;4967936;28;20538;-74
2022/08/01 00:48:16;;;;;;;5.03;2.80;;;;;;;19.57;100.00;96595.97;4965076;28;20026;-73
2022/08/01 00:50:42;;;;;;;5.32;2.83;;;;;;;19.52;100.00;96596.84;4968784;28;20035;-73
2022/08/01 00:53:08;;;;;;;9.73;3.67;;;;;;;19.47;100.00;96595.06;4965333;28;20645;-73
2022/08/01 00:55:34;;;;;;;4.10;2.80;;;;;;;19.45;100.00;96596.44;4967098;28;20061;-73
2022/08/01 00:58:00;;;;;;;10.00;3.35;;;;;;;19.46;100.00;96598.09;4964898;28;20031;-73
2022/08/01 01:00:26;;;;;;;6.15;3.08;;;;;;;19.37;100.00;96608.00;4964879;28;20648;-72
2022/08/01 01:02:52;;;;;;;11.18;3.22;;;;;;;19.31;100.00;96601.09;4938287;28;20066;-73
2022/08/01 01:05:17;;;;;;;6.95;2.92;;;;;;;19.30;100.00;96608.44;4967399;28;20489;-73
2022/08/01 01:08:03;;;;;;;4.65;2.50;;;;;;;19.23;100.00;96599.06;4966898;28;20187;-73
2022/08/01 01:10:39;;;;;;;4.78;2.60;;;;;;;19.22;100.00;96600.97;4965842;28;20810;-73
2022/08/01 01:13:09;;;;;;;6.93;2.30;;;;;;;19.24;100.00;96611.53;4965219;28;20046;-73
2022/08/01 01:15:49;;;;;;;4.80;2.20;;;;;;;19.17;100.00;96609.22;4967113;28;20057;-73
2022/08/01 01:18:32;;;;;;;4.97;2.05;;;;;;;19.09;100.00;96605.28;4962538;28;20274;-73
2022/08/01 01:21:11;;;;;;;4.72;1.60;;;;;;;19.06;100.00;96600.44;4966694;28;20663;-73
2022/08/01 01:23:55;;;;;;;3.38;1.48;;;;;;;19.01;100.00;96592.41;4967273;28;20158;-73
2022/08/01 01:27:12;;;;;;;3.45;1.95;;;;;;;18.98;100.00;96595.69;4969365;28;20401;-73
2022/08/01 01:29:51;;;;;;;3.03;1.58;;;;;;;19.05;100.00;96595.31;4932825;28;20058;-73
2022/08/01 01:32:22;;;;;;;5.15;1.98;;;;;;;18.96;100.00;96595.22;4965886;28;20039;-72
2022/08/01 01:34:51;;;;;;;3.92;1.42;;;;;;;18.98;100.00;96594.91;4964734;28;20486;-73
2022/08/01 01:37:21;;;;;;;4.85;1.55;;;;;;;18.93;100.00;96599.31;4965209;28;20030;-72
2022/08/01 01:39:50;;;;;;;5.83;1.57;;;;;;;18.95;100.00;96598.22;4966482;28;20117;-73
2022/08/01 01:42:17;;;;;;;4.15;1.45;;;;;;;18.87;100.00;96594.28;4945605;28;20092;-73
2022/08/01 01:44:45;;;;;;;2.85;1.20;;;;;;;18.88;100.00;96593.97;4966676;28;20553;-72
2022/08/01 01:47:13;;;;;;;7.30;1.30;;;;;;;18.83;100.00;96593.25;4964680;28;20348;-72
2022/08/01 01:49:41;;;;;;;3.95;1.23;;;;;;;18.74;100.00;96592.34;4965008;28;20065;-72
2022/08/01 01:52:08;;;;;;;2.67;1.30;;;;;;;18.67;100.00;96597.34;4962743;28;20030;-72
2022/08/01 01:54:40;;;;;;;3.63;1.50;;;;;;;18.72;100.00;96591.84;4966953;28;20073;-72
2022/08/01 01:57:08;;;;;;;4.03;1.33;;;;;;;18.73;100.00;96590.72;4962658;28;20438;-73
2022/08/01 01:59:36;;;;;;;6.32;1.50;;;;;;;18.65;100.00;96594.91;4964025;28;20379;-73
2022/08/01 02:02:04;;;;;;;4.28;1.40;;;;;;;18.62;100.00;96590.88;4964219;28;20386;-72
2022/08/01 02:04:32;;;;;;;4.78;1.80;;;;;;;18.60;100.00;96593.09;4967670;28;20026;-72
2022/08/01 02:07:00;;;;;;;5.45;1.75;;;;;;;18.58;100.00;96592.56;4962467;28;20137;-72
2022/08/01 02:09:27;;;;;;;5.57;1.77;;;;;;;18.58;100.00;96589.84;4966546;28;20041;-73
2022/08/01 02:11:55;;;;;;;3.25;1.50;;;;;;;18.58;100.00;96589.06;4943433;28;20184;-73
2022/08/01 02:14:22;;;;;;;5.40;2.30;;;;;;;18.57;100.00;96588.25;4964780;28;20381;-73
2022/08/01 02:16:49;;;;;;;4.85;1.88;;;;;;;18.62;100.00;96593.59;4944725;28;20043;-72
2022/08/01 02:19:17;;;;;;;3.45;1.45;;;;;;;18.58;100.00;96589.84;4963958;28;20137;-73
2022/08/01 02:21:45;;;;;;;7.05;2.10;;;;;;;18.54;100.00;96602.41;4966426;28;20424;-73
2022/08/01 02:24:16;;;;;;;3.42;1.75;;;;;;;18.54;100.00;96591.56;4964791;28;20390;-73
2022/08/01 02:26:47;;;;;;;5.97;2.00;;;;;;;18.52;100.00;96599.19;4966558;28;20046;-72
2022/08/01 02:29:19;;;;;;;3.92;1.88;;;;;;;18.49;100.00;96593.53;4962817;28;20582;-73
2022/08/01 02:31:48;;;;;;;8.07;1.73;;;;;;;18.42;100.00;96601.22;4965292;28;20042;-72
2022/08/01 02:34:17;;;;;;;4.18;1.95;;;;;;;18.41;100.00;96600.44;4964559;28;20499;-73
2022/08/01 02:36:45;;;;;;;4.45;2.05;;;;;;;18.44;100.00;96602.53;4965491;28;20117;-72
2022/08/01 02:39:13;;;;;;;4.70;1.85;;;;;;;18.45;100.00;96601.47;4963412;28;20023;-72
2022/08/01 02:41:42;;;;;;;3.78;2.03;;;;;;;18.46;100.00;96600.38;4964976;28;20042;-73
2022/08/01 02:44:10;;;;;;;4.80;2.08;;;;;;;18.46;100.00;96602.28;4963506;28;20362;-72
2022/08/01 02:46:44;;;;;;;5.15;2.13;;;;;;;18.47;100.00;96598.47;4967224;28;20035;-73
2022/08/01 02:49:11;;;;;;;5.95;2.25;;;;;;;18.43;100.00;96608.25;4962936;28;20038;-73
2022/08/01 02:51:39;;;;;;;3.88;2.13;;;;;;;18.36;100.00;96605.91;4965740;28;20566;-72
2022/08/01 02:54:08;;;;;;;5.53;3.28;;;;;;;18.26;100.00;96596.06;4962418;28;20112;-73
2022/08/01 02:56:34;;;;;;;5.97;3.22;;;;;;;18.28;100.00;96601.97;4965014;28;20034;-73
2022/08/01 02:59:13;;;;;;;6.47;3.17;;;;;;;18.35;100.00;96596.19;4966598;28;20387;-73
2022/08/01 03:01:39;;;;;;;7.70;3.33;;;;;;;18.36;100.00;96598.63;4967940;28;20057;-73
2022/08/01 03:04:06;;;;;;;5.43;3.08;;;;;;;18.35;100.00;96596.19;4967131;28;20499;-73
2022/08/01 03:06:33;;;;;;;5.82;3.47;;;;;;;18.34;100.00;96598.09;4968775;28;20520;-72
2022/08/01 03:09:01;;;;;;;5.10;3.20;;;;;;;18.35;100.00;96596.19;4966212;28;20057;-73
2022/08/01 03:11:28;;;;;;;5.40;3.30;;;;;;;18.27;100.00;96583.31;4968332;28;20041;-73
2022/08/01 03:13:55;;;;;;;5.13;2.80;;;;;;;18.24;100.00;96595.56;4966324;28;20116;-73
2022/08/01 03:16:24;;;;;;;3.90;2.67;;;;;;;18.14;100.00;96598.41;4969557;28;20030;-72
2022/08/01 03:18:53;;;;;;;6.00;2.90;;;;;;;18.00;100.00;96611.06;4968189;28;20034;-73
2022/08/01 03:21:21;;;;;;;5.07;3.13;;;;;;;18.15;100.00;96600.03;4969756;28;20054;-73
2022/08/01 03:23:49;;;;;;;6.13;3.20;;;;;;;17.96;100.00;96607.31;4954061;28;20387;-72
2022/08/01 03:26:15;;;;;;;4.97;3.08;;;;;;;18.04;100.00;96612.88;4968731;28;20340;-72
2022/08/01 03:28:42;;;;;;;5.57;3.13;;;;;;;18.05;100.00;96606.41;4948933;28;20031;-73
2022/08/01 03:31:09;;;;;;;7.63;3.40;;;;;;;18.08;100.00;96603.09;4955554;28;20142;-73
2022/08/01 03:33:35;;;;;;;4.93;3.03;;;;;;;18.04;100.00;96610.19;4967976;28;20447;-73
2022/08/01 03:36:04;;;;;;;5.55;2.90;;;;;;;18.00;100.00;96606.47;4968505;28;20149;-74
2022/08/01 03:38:37;;;;;;;4.43;2.95;;;;;;;17.95;100.00;96608.41;4967233;28;20030;-72
2022/08/01 03:41:11;;;;;;;6.10;3.00;;;;;;;17.96;100.00;96610.03;4967286;28;20038;-72
2022/08/01 03:43:46;;;;;;;7.57;4.00;;;;;;;17.94;100.00;96613.03;4948971;28;20081;-73
2022/08/01 03:46:18;;;;;;;9.27;5.50;;;;;;;17.89;100.00;96618.50;4969066;28;20721;-72
2022/08/01 03:48:48;;;;;;;9.05;5.53;;;;;;;17.86;100.00;96623.72;4964605;28;20647;-72
2022/08/01 03:51:15;;;;;;;9.00;5.82;;;;;;;17.84;100.00;96628.63;4966093;28;20038;-73
2022/08/01 03:53:42;;;;;;;11.73;7.53;;;;;;;17.83;100.00;96621.59;4968134;28;20501;-73
2022/08/01 03:56:09;;;;;;;12.82;8.05;;;;;;;17.77;100.00;96623.56;4968099;28;20038;-73
2022/08/01 03:58:39;;;;;;;14.75;8.90;;;;;;;17.79;100.00;96621.34;4966907;28;20254;-72
2022/08/01 04:01:06;;;;;;;16.13;9.32;;;;;;;17.72;100.00;96635.22;4964657;28;20074;-73
2022/08/01 04:03:33;;;;;;;16.23;8.93;;;;;;;17.72;100.00;96631.72;4965495;28;20073;-73
2022/08/01 04:05:58;;;;;;;15.50;10.35;;;;;;;17.68;100.00;96619.84;4968142;28;20057;-72
2022/08/01 04:08:37;;;;;;;17.27;10.85;;;;;;;17.70;100.00;96633.88;4965353;28;20502;-72
2022/08/01 04:11:03;;;;;;;16.73;10.60;;;;;;;17.65;100.00;96625.81;4968388;28;20034;-73
2022/08/01 04:13:29;;;;;;;17.92;10.63;;;;;;;17.65;100.00;96631.25;4967546;28;20043;-72
2022/08/01 04:15:55;;;;;;;14.88;9.88;;;;;;;17.64;100.00;96635.84;4968261;28;20097;-72
2022/08/01 04:18:20;;;;;;;15.98;9.85;;;;;;;17.62;100.00;96637.25;4964175;28;20054;-72
2022/08/01 04:20:46;;;;;;;16.10;10.60;;;;;;;17.62;100.00;96634.53;4955964;28;20166;-72
2022/08/01 04:23:15;;;;;;;18.10;11.35;;;;;;;17.58;100.00;96639.69;4966702;28;20422;-73
2022/08/01 04:25:42;;;;;;;19.67;10.80;;;;;;;17.58;100.00;96644.31;4967216;28;20030;-72
2022/08/01 04:28:16;;;;;;;17.65;10.55;;;;;;;17.57;100.00;96648.91;4964214;28;20062;-73
2022/08/01 04:30:44;;;;;;;19.30;11.85;;;;;;;17.58;100.00;96649.72;4967982;28;20039;-72
2022/08/01 04:33:15;;;;;;;18.85;11.73;;;;;;;17.57;100.00;96656.22;4963897;28;20097;-73
2022/08/01 04:35:45;;;;;;;;;;;;;;;17.54;100.00;96663.81;4967445;28;20073;-73
2022/08/01 04:38:14;;;;;;;15.45;9.45;;;;;;;17.55;100.00;96662.72;4965961;28;20152;-73
2022/08/01 04:40:41;;;;;;;17.20;9.95;;;;;;;17.57;100.00;96661.63;4966475;28;20034;-73
2022/08/01 04:43:07;;;;;;;16.08;10.00;;;;;;;17.57;100.00;96667.03;4963584;28;20034;-73
2022/08/01 04:45:34;;;;;;;15.77;9.88;;;;;;;17.58;100.00;96668.66;4968252;28;20034;-73
2022/08/01 04:48:00;;;;;;;17.60;9.98;;;;;;;17.59;100.00;96670.25;4965524;28;20097;-72
2022/08/01 04:50:27;;;;;;;14.35;9.40;;;;;;;17.67;100.00;96664.25;4967663;28;20125;-73
2022/08/01 04:52:52;;;;;;;20.85;10.15;;;;;;;17.74;100.00;96668.25;4966566;28;20054;-73
2022/08/01 04:55:18;;;;;;;16.05;10.38;;;;;;;17.76;100.00;96670.66;4966288;28;20038;-73
2022/08/01 04:57:46;;;;;;;21.55;11.70;;;;;;;17.68;100.00;96668.56;4966205;28;20509;-73
2022/08/01 05:00:12;;;;;;;17.20;11.20;;;;;;;17.67;100.00;96673.16;4962943;28;20176;-73
2022/08/01 05:02:38;;;;;;;19.00;11.77;;;;;;;17.69;100.00;96675.56;4966144;28;20038;-73
2022/08/01 05:05:05;;;;;;;16.77;11.98;;;;;;;17.71;100.00;96671.50;4966212;28;20045;-73
2022/08/01 05:07:32;;;;;;;17.80;11.88;;;;;;;17.75;100.00;96674.47;4970762;28;20059;-73
2022/08/01 05:09:58;;;;;;;15.63;11.73;;;;;;;17.73;100.00;96676.63;4965907;28;20159;-73
2022/08/01 05:12:23;;;;;;;19.88;11.60;;;;;;;17.70;100.00;96677.19;4967384;28;20041;-73
2022/08/01 05:14:49;;;;;;;18.40;11.80;;;;;;;17.75;100.00;96682.59;4964402;28;20394;-73
2022/08/01 05:17:14;;;;;;;18.58;12.00;;;;;;;17.79;100.00;96678.19;4965674;28;20030;-73
2022/08/01 05:19:40;;;;;;;18.75;11.82;;;;;;;17.84;100.00;96678.13;4967932;28;20045;-73
2022/08/01 05:22:07;;;;;;;20.55;12.73;;;;;;;17.90;100.00;96676.16;4963489;28;20652;-73
2022/08/01 05:24:35;;;;;;;19.30;11.25;;;;;;;17.91;100.00;96670.47;4965386;28;20034;-73
2022/08/01 05:27:01;;;;;;;19.42;11.95;;;;;;;17.92;100.00;96680.19;4965685;28;20931;-72
2022/08/01 05:29:27;;;;;;;22.58;12.27;;;;;;;17.90;100.00;96682.41;4966260;28;20038;-73
2022/08/01 05:31:53;;;;;;;17.15;11.18;;;;;;;17.86;100.00;96681.34;4964150;28;20042;-73
2022/08/01 05:34:20;;;;;;;17.55;12.20;;;;;;;17.86;100.00;96681.34;4966859;28;20051;-73
2022/08/01 05:36:45;;;;;;;17.02;11.30;;;;;;;17.89;100.00;96685.38;4967965;28;20033;-73
2022/08/01 05:39:11;;;;;;;24.23;12.35;;;;;;;17.96;100.00;96680.41;4967102;28;20161;-73
2022/08/01 05:41:37;;;;;;;20.05;11.43;;;;;;;18.00;100.00;96682.25;4967769;28;20038;-73
2022/08/01 05:44:05;;;;;;;19.63;11.80;;;;;;;18.06;100.00;96678.41;4962527;28;20057;-73
2022/08/01 05:46:32;;;;;;;17.92;12.00;;;;;;;18.13;100.00;96685.34;4965933;28;20026;-73
2022/08/01 05:48:58;;;;;;;18.92;11.27;;;;;;;18.04;100.00;96683.28;4964089;28;20116;-73
2022/08/01 05:51:27;;;;;;;17.90;11.30;;;;;;;18.00;100.00;96693.09;4947864;28;20046;-73
2022/08/01 05:53:53;;;;;;;16.00;10.52;;;;;;;17.93;100.00;96692.63;4965298;28;20358;-73
2022/08/01 05:56:19;;;;;;;18.23;11.38;;;;;;;17.99;100.00;96691.47;4966913;28;20046;-72
2022/08/01 05:58:44;;;;;;;20.35;12.43;;;;;;;18.04;100.00;96702.22;4963719;28;20031;-73
2022/08/01 06:01:10;;;;;;;15.43;10.77;;;;;;;18.07;100.00;96692.75;4964307;28;20344;-73
2022/08/01 06:03:36;;;;;;;17.98;10.50;;;;;;;18.08;100.00;96692.44;4963990;28;20070;-73
2022/08/01 06:06:02;;;;;;;18.20;12.07;;;;;;;18.19;100.00;96695.81;4966084;28;20031;-73
2022/08/01 06:08:27;;;;;;;19.45;11.43;;;;;;;18.31;100.00;96692.69;4963695;28;20062;-73
2022/08/01 06:10:53;;;;;;;19.05;11.05;;;;;;;18.25;100.00;96704.69;4965137;28;20081;-73
2022/08/01 06:13:21;;;;;;;19.33;12.23;;;;;;;18.23;100.00;96696.84;4964435;28;20042;-73
2022/08/01 06:15:47;;;;;;;19.92;11.43;;;;;;;18.32;100.00;96699.72;4966196;28;20034;-73
2022/08/01 06:18:13;;;;;;;18.75;10.50;;;;;;;18.31;100.00;96700.81;4962658;28;20109;-73
2022/08/01 06:20:38;;;;;;;17.98;10.85;;;;;;;18.32;100.00;96702.44;4964971;28;20038;-73
2022/08/01 06:23:04;;;;;;;15.93;10.75;;;;;;;18.41;100.00;96705.28;4962536;28;20442;-73
2022/08/01 06:25:29;;;;;;;15.48;10.10;;;;;;;18.49;100.00;96702.72;4967576;28;20034;-73
2022/08/01 06:27:55;;;;;;;18.25;10.60;;;;;;;18.58;100.00;96705.56;4963095;28;20516;-73
2022/08/01 06:30:20;;;;;;;16.55;10.30;;;;;;;18.56;100.00;96713.19;4962958;28;20066;-73
2022/08/01 06:32:47;;;;;;;17.02;11.48;;;;;;;18.50;100.00;96709.75;4963389;28;20700;-73
2022/08/01 06:35:13;;;;;;;15.05;10.55;;;;;;;18.56;100.00;96700.44;4964589;28;20440;-73
2022/08/01 06:37:39;;;;;;;17.85;11.02;;;;;;;18.66;100.00;96699.50;4965201;28;20031;-73
2022/08/01 06:40:07;;;;;;;20.33;10.85;;;;;;;18.64;100.00;96707.91;4965245;28;20031;-72
2022/08/01 06:42:35;;;;;;;16.63;10.38;;;;;;;18.69;100.00;96704.38;4964640;28;20530;-73
2022/08/01 06:45:09;;;;;;;15.23;9.95;;;;;;;18.65;100.00;96711.44;4946985;28;20077;-73
2022/08/01 06:47:35;;;;;;;15.48;10.15;;;;;;;18.53;100.00;96716.50;4963615;28;20045;-73
2022/08/01 06:50:01;;;;;;;17.15;10.57;;;;;;;18.54;100.00;96708.06;4964635;28;20031;-73
2022/08/01 06:52:27;;;;;;;14.88;9.65;;;;;;;18.59;100.00;96705.28;4965261;28;20505;-73
2022/08/01 06:54:53;;;;;;;19.13;11.32;;;;;;;18.70;100.00;96705.16;4965200;28;20041;-73
2022/08/01 06:57:18;;;;;;;16.35;10.45;;;;;;;18.90;100.00;96705.63;4965407;28;20026;-73
2022/08/01 06:59:44;;;;;;;16.77;9.80;;;;;;;18.88;100.00;96705.13;4964942;28;20058;-73
2022/08/01 07:02:10;;;;;;;13.95;10.18;;;;;;;18.90;100.00;96704.84;4961577;28;20038;-73
2022/08/01 07:04:36;;;;;;;17.63;10.55;;;;;;;19.00;100.00;96703.88;4964699;28;20057;-73
2022/08/01 07:07:02;;;;;;;18.67;10.18;;;;;;;19.10;100.00;96699.09;4959766;28;20562;-73
2022/08/01 07:09:28;;;;;;;16.83;11.10;;;;;;;19.27;100.00;96700.44;4965800;28;20044;-72
2022/08/01 07:11:54;;;;;;;15.23;10.13;;;;;;;19.29;100.00;96699.03;4964080;28;20053;-73
2022/08/01 07:14:21;;;;;;;14.77;10.63;;;;;;;19.28;100.00;96700.13;4954906;28;20052;-73
2022/08/01 07:16:46;;;;;;;17.10;10.57;;;;;;;19.34;100.00;96698.16;4963974;28;20383;-73
2022/08/01 07:19:12;;;;;;;15.77;11.40;;;;;;;19.43;100.00;96697.16;4961958;28;20254;-73
2022/08/01 07:21:38;;;;;;;18.30;10.10;;;;;;;19.49;100.00;96701.38;4964030;28;20043;-73
2022/08/01 07:24:05;;;;;;;16.85;10.55;;;;;;;19.41;100.00;96704.78;4942644;28;20218;-72
2022/08/01 07:26:30;;;;;;;13.73;9.52;;;;;;;19.40;100.00;96696.97;4964372;28;20065;-72
2022/08/01 07:28:56;;;;;;;14.73;9.65;;;;;;;19.44;100.00;96701.47;4960522;28;20474;-73
2022/08/01 07:31:22;;;;;;;13.70;9.68;;;;;;;19.82;100.00;96695.09;4962586;28;20104;-73
2022/08/01 07:33:49;;;;;;;16.95;10.55;;;;;;;20.17;100.00;96694.38;4964270;28;20035;-73
2022/08/01 07:36:17;;;;;;;12.65;9.63;;;;;;;20.66;100.00;96692.78;4963199;28;20329;-72
2022/08/01 07:38:43;;;;;;;13.40;8.50;;;;;;;21.03;100.00;96697.06;4963307;28;20030;-73
2022/08/01 07:41:09;;;;;;;11.20;7.85;;;;;;;21.12;100.00;96689.78;4962192;28;20077;-73
2022/08/01 07:43:35;;;;;;;13.82;8.00;;;;;;;21.02;100.00;96689.22;4961846;28;20303;-73
2022/08/01 07:46:04;;;;;;;11.07;8.27;;;;;;;21.33;100.00;96697.47;4966990;28;20034;-73
2022/08/01 07:48:30;;;;;;;12.10;7.93;;;;;;;21.67;100.00;96686.72;4965452;28;20038;-73
2022/08/01 07:50:56;;;;;;;11.63;7.97;;;;;;;21.65;100.00;96693.59;4970292;28;20038;-72
2022/08/01 07:53:22;;;;;;;11.63;8.38;;;;;;;21.49;100.00;96692.41;4967084;28;20516;-73
2022/08/01 07:55:48;;;;;;;10.60;8.70;;;;;;;21.26;100.00;96688.91;4969132;28;20116;-73
2022/08/01 07:58:14;;;;;;;12.48;9.02;;;;;;;21.26;100.00;96683.47;4964582;28;20113;-73
2022/08/01 08:00:40;;;;;;;12.20;9.07;;;;;;;21.67;100.00;96683.19;4966934;28;20110;-73
2022/08/01 08:03:05;;;;;;;13.98;9.13;;;;;;;21.80;100.00;96684.22;4965093;28;20034;-73
2022/08/01 08:05:34;;;;;;;15.73;8.85;;;;;;;21.70;100.00;96696.97;4967659;28;20034;-73
2022/08/01 08:08:02;;;;;;;12.63;9.00;;;;;;;21.68;100.00;96695.69;4966626;28;20584;-73
2022/08/01 08:10:27;;;;;;;12.55;8.20;;;;;;;21.55;100.00;96697.38;4965291;28;20118;-73
2022/08/01 08:12:53;;;;;;;12.52;8.48;;;;;;;21.63;100.00;96696.66;4964841;28;20610;-73
2022/08/01 08:15:18;;;;;;;12.02;7.65;;;;;;;21.94;100.00;96690.34;4928794;28;20046;-73
2022/08/01 08:17:44;;;;;;;11.60;8.02;;;;;;;22.18;100.00;96690.78;4974570;28;20030;-73
2022/08/01 08:20:09;;;;;;;10.27;7.53;;;;;;;22.35;100.00;96692.72;4941871;28;20053;-73
2022/08/01 08:22:35;;;;;;;11.55;7.72;;;;;;;22.31;100.00;96689.03;4971421;28;20030;-72
2022/08/01 08:25:01;;;;;;;13.23;8.25;;;;;;;22.08;100.00;96684.81;4970068;28;20117;-72
2022/08/01 08:27:26;;;;;;;13.07;7.22;;;;;;;21.60;100.00;96691.00;4971331;28;20459;-73
2022/08/01 08:29:52;;;;;;;10.50;6.20;;;;;;;21.47;100.00;96691.91;4969418;28;20517;-73
2022/08/01 08:32:17;;;;;;;11.27;6.68;;;;;;;21.72;100.00;96693.16;4949546;28;20038;-73
2022/08/01 08:34:43;;;;;;;11.05;7.20;;;;;;;21.78;100.00;96689.97;4971930;28;20037;-73
2022/08/01 08:37:09;;;;;;;16.63;7.72;;;;;;;21.98;100.00;96692.13;4966721;28;20221;-73
2022/08/01 08:39:34;;;;;;;11.25;6.93;;;;;;;22.00;100.00;96685.56;4968210;28;20034;-73
2022/08/01 08:42:01;;;;;;;10.38;6.90;;;;;;;22.47;100.00;96692.88;4966809;28;20026;-73
2022/08/01 08:44:27;;;;;;;13.90;6.93;;;;;;;23.16;100.00;96683.91;4965297;28;20065;-73
2022/08/01 08:46:55;;;;;;;8.68;6.90;;;;;;;23.53;100.00;96689.78;4966604;28;20114;-73
2022/08/01 08:49:24;;;;;;;8.85;5.72;;;;;;;23.79;100.00;96686.97;4965780;28;20127;-73
2022/08/01 08:51:51;;;;;;;9.63;6.43;;;;;;;23.60;100.00;96693.66;4964399;28;20508;-73
2022/08/01 08:54:20;;;;;;;10.10;6.03;;;;;;;23.51;100.00;96692.84;4965372;28;20030;-73
2022/08/01 08:56:47;;;;;;;10.85;5.15;;;;;;;23.46;100.00;96689.47;4948458;28;20038;-73
2022/08/01 08:59:13;;;;;;;8.50;5.85;;;;;;;23.03;100.00;96693.06;4964317;28;20615;-73
2022/08/01 09:01:39;;;;;;;8.75;5.47;;;;;;;22.69;100.00;96689.22;4966678;28;20065;-73
2022/08/01 09:04:05;;;;;;;8.40;5.55;;;;;;;22.60;100.00;96698.53;4948794;28;20042;-73
2022/08/01 09:06:31;;;;;;;9.52;5.78;;;;;;;22.68;100.00;96697.72;4965578;28;20045;-73
2022/08/01 09:08:57;;;;;;;8.80;5.90;;;;;;;22.84;100.00;96701.56;4965898;28;20049;-73
2022/08/01 09:11:23;;;;;;;8.43;5.43;;;;;;;23.17;100.00;96701.91;4949055;28;20050;-73
2022/08/01 09:14:16;;;;;;;8.18;5.53;;;;;;;22.76;100.00;96705.91;4964142;28;20038;-73
2022/08/01 09:16:44;;;;;;;8.90;6.50;;;;;;;22.67;100.00;96704.31;4938867;28;20065;-73
2022/08/01 09:19:17;;;;;;;10.57;7.70;;;;;;;22.70;100.00;96704.47;4962785;28;20030;-73
2022/08/01 09:22:00;;;;;;;11.40;6.65;;;;;;;22.91;100.00;96701.13;4966448;28;20050;-73
2022/08/01 09:24:28;;;;;;;9.27;6.10;;;;;;;23.19;100.00;96699.66;4964170;28;20038;-73
2022/08/01 09:26:55;;;;;;;8.98;6.32;;;;;;;23.33;100.00;96702.19;4964583;28;20043;-73
2022/08/01 09:29:25;;;;;;;9.35;5.70;;;;;;;23.55;100.00;96703.91;4966008;28;20455;-73
2022/08/01 09:31:51;;;;;;;7.15;4.68;;;;;;;23.95;100.00;96700.88;4966020;28;20047;-73
2022/08/01 09:34:25;;;;;;;8.75;4.72;;;;;;;24.37;100.00;96696.34;4965608;28;20294;-73
2022/08/01 09:36:54;;;;;;;7.45;4.65;;;;;;;24.38;100.00;96700.69;4963928;28;20175;-73
2022/08/01 09:39:21;;;;;;;7.28;4.85;;;;;;;23.75;100.00;96702.44;4965811;28;20036;-73
2022/08/01 09:41:47;;;;;;;8.20;5.00;;;;;;;23.87;100.00;96710.72;4965694;28;20057;-72
2022/08/01 09:44:14;;;;;;;7.47;4.95;;;;;;;23.78;100.00;96707.22;4963579;28;20026;-72
2022/08/01 09:46:50;;;;;;;8.57;4.50;;;;;;;23.76;100.00;96699.38;4965040;28;20341;-73
2022/08/01 09:49:36;;;;;;;5.60;4.57;;;;;;;23.83;100.00;96707.84;4965329;28;20034;-73
2022/08/01 09:52:21;;;;;;;6.45;4.28;;;;;;;24.36;100.00;96701.03;4965162;28;20041;-73
2022/08/01 09:54:52;;;;;;;7.95;3.30;;;;;;;23.98;100.00;96705.72;4965281;28;20034;-73
2022/08/01 09:57:19;;;;;;;6.85;3.13;;;;;;;23.92;100.00;96696.88;4961799;28;20038;-73
2022/08/01 09:59:46;;;;;;;5.22;3.22;;;;;;;24.38;100.00;96706.16;4964183;28;20033;-73
2022/08/01 10:02:25;;;;;;;8.60;4.30;;;;;;;24.94;99.20;96707.50;4962614;28;20230;-72
2022/08/01 10:04:52;;;;;;;5.78;3.60;;;;;;;25.62;96.85;96698.97;4964322;28;20061;-74
2022/08/01 10:07:18;;;;;;;4.93;3.08;;;;;;;26.08;94.71;96689.56;4964098;28;20183;-73
2022/08/01 10:09:45;;;;;;;5.28;3.30;;;;;;;25.75;95.58;96697.88;4965376;28;20038;-73
2022/08/01 10:12:14;;;;;;;4.60;3.10;;;;;;;25.19;99.01;96705.69;4964399;28;20276;-73
2022/08/01 10:14:40;;;;;;;5.78;3.35;;;;;;;24.34;100.00;96706.00;4965200;28;20034;-73
2022/08/01 10:17:11;;;;;;;5.78;2.80;;;;;;;23.98;100.00;96706.50;4937764;28;20054;-73
2022/08/01 10:19:41;;;;;;;4.53;3.00;;;;;;;23.87;100.00;96706.06;4964249;28;20417;-73
2022/08/01 10:22:08;;;;;;;5.20;2.92;;;;;;;23.96;100.00;96703.28;4964968;28;20349;-73
2022/08/01 10:24:38;;;;;;;6.35;3.20;;;;;;;24.30;100.00;96705.06;4964766;28;20471;-73
2022/08/01 10:27:06;;;;;;;5.05;3.10;;;;;;;24.74;97.98;96706.38;4962943;28;20418;-72
2022/08/01 10:29:36;;;;;;;6.82;3.35;;;;;;;25.46;95.81;96690.63;4965092;28;20042;-73
2022/08/01 10:32:04;;;;;;;;;;;;;;;26.13;90.48;96677.56;4276131;28;9999833;-73
2022/08/01 10:34:30;;;;;;;5.28;2.75;;;;;;;26.08;91.96;96686.03;4964448;28;20654;-73
2022/08/01 10:36:56;;;;;;;4.65;3.03;;;;;;;25.99;89.61;96694.38;4960504;28;20085;-73
2022/08/01 10:39:22;;;;;;;6.28;3.15;;;;;;;26.19;89.34;96692.66;4960916;28;20153;-73
2022/08/01 10:41:48;;;;;;;6.28;3.63;;;;;;;26.24;90.75;96688.88;4963939;28;20038;-73
2022/08/01 10:44:14;;;;;;;4.68;3.10;;;;;;;26.56;90.29;96687.16;4960580;28;20038;-73
2022/08/01 10:46:44;;;;;;;7.28;3.33;;;;;;;26.67;88.66;96691.00;4964715;28;20576;-73
2022/08/01 10:49:11;;;;;;;;;;;;;;;26.61;89.32;96693.22;4960383;28;20041;-73
2022/08/01 10:51:38;;;;;;;6.65;3.35;;;;;;;26.89;87.81;96671.25;4964612;28;20033;-73
2022/08/01 10:54:09;;;;;;;5.25;3.33;;;;;;;27.34;84.20;96672.94;4960784;28;20077;-73
2022/08/01 10:56:49;;;;;;;5.78;3.25;;;;;;;27.75;81.51;96668.13;4963517;28;20477;-74
2022/08/01 10:59:26;;;;;;;5.00;3.00;;;;;;;28.08;78.75;96669.69;4959966;28;20198;-73
2022/08/01 11:02:03;;;;;;;4.85;3.15;;;;;;;28.10;80.85;96661.91;4960914;28;20106;-74
2022/08/01 11:04:53;;;;;;;5.93;3.60;;;;;;;27.85;79.08;96675.03;4961774;28;20030;-73
2022/08/01 11:07:33;;;;;;;5.93;3.05;;;;;;;28.04;78.05;96673.16;4962160;28;20117;-73
2022/08/01 11:10:08;;;;;;;6.85;3.35;;;;;;;27.56;80.77;96673.50;4963160;28;20043;-73
2022/08/01 11:12:42;;;;;;;5.63;3.85;;;;;;;27.64;83.15;96675.28;4961586;28;20684;-73
2022/08/01 11:15:11;;;;;;;4.47;3.10;;;;;;;28.62;75.73;96682.75;4962152;28;20113;-73
2022/08/01 11:17:47;;;;;;;4.82;3.40;;;;;;;29.24;69.63;96680.91;4951357;28;20408;-73
2022/08/01 11:20:31;;;;;;;4.68;3.17;;;;;;;30.83;57.68;96670.94;4964982;28;20371;-73
2022/08/01 11:23:04;;;;;;;5.60;3.38;;;;;;;32.30;49.59;96671.28;4964472;28;20092;-73
2022/08/01 11:25:36;;;;;;;8.45;3.10;;;;;;;34.14;40.98;96671.56;4965916;28;20124;-73
2022/08/01 11:28:13;;;;;;;5.10;2.90;;;;;;;35.12;37.01;96658.69;4959569;28;20111;-74